首页
METAR-TAF:

METAR-TAF

机场 :

倫敦盧頓機場

卢顿, 英格兰

纬度: 51-52N, 经度: 000-22W, 海拔: 160米

当前天气观测

该预报发布于26分钟前的09:50 UTC
风速5节,风向,在西北北转东北之间变化
温度 3°C
湿度 75%
气压 1044 hPa
能见度10公里或以上

METAR: EGGW 190950Z AUTO 35005KT 320V020 9999 NCD 03/M01 Q1044

时间: 10:16 (10:16 UTC)

预报

该预报发布于5小时和12分钟前的05:04 UTC
预报有效从19日的 06点(UTC)到 20日的 06点(UTC)
风速6节,风向北转西北
能见度10公里或以上
1500米以下无云,无积雨云
短暂存在
从 19日的 22点(UTC)到 20日的 06点(UTC)
能見度: 7000

TAF: EGGW 190504Z 1906/2006 34006KT CAVOK TEMPO 1922/2006 7000

超过4000个机场的气象观测和天气预报(METAR&TAF报告)。

可查询的气象台以黄色和红色小点在地图上表示。

将鼠标移到小点上方,可查看气象台名称。

然后点击查看天气观测和预报。

如需切换地图:点击带黑十字的绿色按钮放大地图;点击带横线的绿色按钮缩小地图;或者点击绿色箭头查看邻近地区的地图。


METAR-TAF: